sensor_id;sensor_type;location;lat;lon;timestamp;temperature;humidity
38684;DHT22;24910;53.248;-6.134;2023-08-24T00:01:17;18.60;78.50
38684;DHT22;24910;53.248;-6.134;2023-08-24T00:03:46;18.60;78.40
38684;DHT22;24910;53.248;-6.134;2023-08-24T00:06:15;18.60;78.40
38684;DHT22;24910;53.248;-6.134;2023-08-24T00:08:44;18.60;78.30
38684;DHT22;24910;53.248;-6.134;2023-08-24T00:11:13;18.60;78.40
38684;DHT22;24910;53.248;-6.134;2023-08-24T00:13:43;18.50;78.60
38684;DHT22;24910;53.248;-6.134;2023-08-24T00:16:18;18.50;78.60
38684;DHT22;24910;53.248;-6.134;2023-08-24T00:18:48;18.50;78.50
38684;DHT22;24910;53.248;-6.134;2023-08-24T00:21:17;18.50;78.50
38684;DHT22;24910;53.248;-6.134;2023-08-24T00:23:52;18.40;78.50
38684;DHT22;24910;53.248;-6.134;2023-08-24T00:26:21;18.40;78.40
38684;DHT22;24910;53.248;-6.134;2023-08-24T00:28:51;18.40;78.40
38684;DHT22;24910;53.248;-6.134;2023-08-24T00:31:22;18.40;78.60
38684;DHT22;24910;53.248;-6.134;2023-08-24T00:33:51;18.30;78.70
38684;DHT22;24910;53.248;-6.134;2023-08-24T00:36:21;18.20;78.70
38684;DHT22;24910;53.248;-6.134;2023-08-24T00:38:51;18.20;78.90
38684;DHT22;24910;53.248;-6.134;2023-08-24T00:41:21;18.10;79.30
38684;DHT22;24910;53.248;-6.134;2023-08-24T00:43:53;18.10;78.80
38684;DHT22;24910;53.248;-6.134;2023-08-24T00:46:32;18.10;79.00
38684;DHT22;24910;53.248;-6.134;2023-08-24T00:49:02;18.00;78.90
38684;DHT22;24910;53.248;-6.134;2023-08-24T00:51:33;18.00;79.00
38684;DHT22;24910;53.248;-6.134;2023-08-24T00:54:04;18.00;78.90
38684;DHT22;24910;53.248;-6.134;2023-08-24T00:56:34;18.00;78.80
38684;DHT22;24910;53.248;-6.134;2023-08-24T00:59:03;18.10;78.70
38684;DHT22;24910;53.248;-6.134;2023-08-24T01:01:33;18.10;78.70
38684;DHT22;24910;53.248;-6.134;2023-08-24T01:04:03;18.10;78.60
38684;DHT22;24910;53.248;-6.134;2023-08-24T01:06:36;18.10;78.60
38684;DHT22;24910;53.248;-6.134;2023-08-24T01:09:06;18.10;78.50
38684;DHT22;24910;53.248;-6.134;2023-08-24T01:11:43;18.10;78.30
38684;DHT22;24910;53.248;-6.134;2023-08-24T01:14:23;18.20;78.40
38684;DHT22;24910;53.248;-6.134;2023-08-24T01:16:58;18.20;78.50
38684;DHT22;24910;53.248;-6.134;2023-08-24T01:19:38;18.10;78.50
38684;DHT22;24910;53.248;-6.134;2023-08-24T01:22:22;18.00;78.80
38684;DHT22;24910;53.248;-6.134;2023-08-24T01:24:57;18.00;78.70
38684;DHT22;24910;53.248;-6.134;2023-08-24T01:27:33;18.10;78.60
38684;DHT22;24910;53.248;-6.134;2023-08-24T01:30:04;18.10;78.70
38684;DHT22;24910;53.248;-6.134;2023-08-24T01:32:34;18.10;78.50
38684;DHT22;24910;53.248;-6.134;2023-08-24T01:35:05;18.10;78.60
38684;DHT22;24910;53.248;-6.134;2023-08-24T01:37:35;18.10;78.60
38684;DHT22;24910;53.248;-6.134;2023-08-24T01:40:13;18.10;78.70
38684;DHT22;24910;53.248;-6.134;2023-08-24T01:43:02;18.00;78.60
38684;DHT22;24910;53.248;-6.134;2023-08-24T01:45:41;18.00;78.70
38684;DHT22;24910;53.248;-6.134;2023-08-24T01:48:39;18.00;78.90
38684;DHT22;24910;53.248;-6.134;2023-08-24T01:51:08;18.00;78.90
38684;DHT22;24910;53.248;-6.134;2023-08-24T01:53:39;18.00;78.70
38684;DHT22;24910;53.248;-6.134;2023-08-24T01:56:09;18.00;78.70
38684;DHT22;24910;53.248;-6.134;2023-08-24T01:58:40;18.00;78.60
38684;DHT22;24910;53.248;-6.134;2023-08-24T02:01:09;18.00;78.60
38684;DHT22;24910;53.248;-6.134;2023-08-24T02:03:40;18.00;78.70
38684;DHT22;24910;53.248;-6.134;2023-08-24T02:06:10;18.00;78.70
38684;DHT22;24910;53.248;-6.134;2023-08-24T02:08:39;18.00;78.70
38684;DHT22;24910;53.248;-6.134;2023-08-24T02:11:08;17.90;78.80
38684;DHT22;24910;53.248;-6.134;2023-08-24T02:13:37;17.90;78.70
38684;DHT22;24910;53.248;-6.134;2023-08-24T02:16:08;17.90;78.80
38684;DHT22;24910;53.248;-6.134;2023-08-24T02:18:37;17.90;78.80
38684;DHT22;24910;53.248;-6.134;2023-08-24T02:21:07;17.80;78.80
38684;DHT22;24910;53.248;-6.134;2023-08-24T02:23:38;17.90;78.80
38684;DHT22;24910;53.248;-6.134;2023-08-24T02:26:07;17.90;78.90
38684;DHT22;24910;53.248;-6.134;2023-08-24T02:28:37;17.80;78.70
38684;DHT22;24910;53.248;-6.134;2023-08-24T02:31:07;17.70;78.70
38684;DHT22;24910;53.248;-6.134;2023-08-24T02:33:37;17.80;78.80
38684;DHT22;24910;53.248;-6.134;2023-08-24T02:36:06;17.80;78.80
38684;DHT22;24910;53.248;-6.134;2023-08-24T02:38:35;17.80;78.80
38684;DHT22;24910;53.248;-6.134;2023-08-24T02:41:06;17.80;78.70
38684;DHT22;24910;53.248;-6.134;2023-08-24T02:43:36;17.80;78.70
38684;DHT22;24910;53.248;-6.134;2023-08-24T02:46:08;17.80;78.70
38684;DHT22;24910;53.248;-6.134;2023-08-24T02:48:37;17.70;78.90
38684;DHT22;24910;53.248;-6.134;2023-08-24T02:51:08;17.70;78.80
38684;DHT22;24910;53.248;-6.134;2023-08-24T02:53:37;17.70;78.90
38684;DHT22;24910;53.248;-6.134;2023-08-24T02:56:06;17.70;79.20
38684;DHT22;24910;53.248;-6.134;2023-08-24T02:58:35;17.60;79.30
38684;DHT22;24910;53.248;-6.134;2023-08-24T03:01:05;17.50;79.50
38684;DHT22;24910;53.248;-6.134;2023-08-24T03:03:37;17.40;79.60
38684;DHT22;24910;53.248;-6.134;2023-08-24T03:06:07;17.40;80.60
38684;DHT22;24910;53.248;-6.134;2023-08-24T03:08:36;17.30;79.80
38684;DHT22;24910;53.248;-6.134;2023-08-24T03:11:06;17.30;80.00
38684;DHT22;24910;53.248;-6.134;2023-08-24T03:13:37;17.20;80.10
38684;DHT22;24910;53.248;-6.134;2023-08-24T03:16:08;17.10;80.20
38684;DHT22;24910;53.248;-6.134;2023-08-24T03:18:39;17.10;80.40
38684;DHT22;24910;53.248;-6.134;2023-08-24T03:21:08;17.00;80.40
38684;DHT22;24910;53.248;-6.134;2023-08-24T03:23:37;17.10;80.40
38684;DHT22;24910;53.248;-6.134;2023-08-24T03:26:07;17.10;80.30
38684;DHT22;24910;53.248;-6.134;2023-08-24T03:28:36;17.10;80.10
38684;DHT22;24910;53.248;-6.134;2023-08-24T03:31:06;17.10;80.00
38684;DHT22;24910;53.248;-6.134;2023-08-24T03:33:36;17.10;79.90
38684;DHT22;24910;53.248;-6.134;2023-08-24T03:36:11;17.10;79.90
38684;DHT22;24910;53.248;-6.134;2023-08-24T03:38:49;17.20;80.00
38684;DHT22;24910;53.248;-6.134;2023-08-24T03:41:32;17.20;80.00
38684;DHT22;24910;53.248;-6.134;2023-08-24T03:44:13;17.20;80.00
38684;DHT22;24910;53.248;-6.134;2023-08-24T03:46:46;17.10;80.20
38684;DHT22;24910;53.248;-6.134;2023-08-24T03:49:16;17.10;80.10
38684;DHT22;24910;53.248;-6.134;2023-08-24T03:51:46;17.10;80.20
38684;DHT22;24910;53.248;-6.134;2023-08-24T03:54:15;17.10;80.30
38684;DHT22;24910;53.248;-6.134;2023-08-24T03:56:45;17.00;81.20
38684;DHT22;24910;53.248;-6.134;2023-08-24T03:59:14;17.10;80.20
38684;DHT22;24910;53.248;-6.134;2023-08-24T04:01:43;17.10;80.00
38684;DHT22;24910;53.248;-6.134;2023-08-24T04:04:12;17.20;79.90
38684;DHT22;24910;53.248;-6.134;2023-08-24T04:06:41;17.10;79.90
38684;DHT22;24910;53.248;-6.134;2023-08-24T04:09:12;17.10;79.90
38684;DHT22;24910;53.248;-6.134;2023-08-24T04:11:41;17.10;79.90
38684;DHT22;24910;53.248;-6.134;2023-08-24T04:14:10;17.10;79.90
38684;DHT22;24910;53.248;-6.134;2023-08-24T04:16:41;17.10;79.90
38684;DHT22;24910;53.248;-6.134;2023-08-24T04:19:10;17.10;80.10
38684;DHT22;24910;53.248;-6.134;2023-08-24T04:21:39;17.10;80.10
38684;DHT22;24910;53.248;-6.134;2023-08-24T04:24:09;17.10;80.20
38684;DHT22;24910;53.248;-6.134;2023-08-24T04:26:39;17.00;80.30
38684;DHT22;24910;53.248;-6.134;2023-08-24T04:29:08;17.00;80.40
38684;DHT22;24910;53.248;-6.134;2023-08-24T04:31:37;17.00;80.30
38684;DHT22;24910;53.248;-6.134;2023-08-24T04:34:08;17.00;80.30
38684;DHT22;24910;53.248;-6.134;2023-08-24T04:36:39;17.00;80.30
38684;DHT22;24910;53.248;-6.134;2023-08-24T04:39:08;17.00;80.30
38684;DHT22;24910;53.248;-6.134;2023-08-24T04:41:39;17.00;80.40
38684;DHT22;24910;53.248;-6.134;2023-08-24T04:44:08;16.90;80.40
38684;DHT22;24910;53.248;-6.134;2023-08-24T04:46:38;16.90;80.30
38684;DHT22;24910;53.248;-6.134;2023-08-24T04:49:07;16.90;80.20
38684;DHT22;24910;53.248;-6.134;2023-08-24T04:51:36;16.90;80.10
38684;DHT22;24910;53.248;-6.134;2023-08-24T04:54:05;16.90;80.20
38684;DHT22;24910;53.248;-6.134;2023-08-24T04:56:34;16.80;80.20
38684;DHT22;24910;53.248;-6.134;2023-08-24T04:59:04;16.70;80.40
38684;DHT22;24910;53.248;-6.134;2023-08-24T05:01:35;16.70;80.60
38684;DHT22;24910;53.248;-6.134;2023-08-24T05:04:04;16.70;80.80
38684;DHT22;24910;53.248;-6.134;2023-08-24T05:06:33;16.60;80.90
38684;DHT22;24910;53.248;-6.134;2023-08-24T05:09:03;16.50;81.00
38684;DHT22;24910;53.248;-6.134;2023-08-24T05:11:32;16.50;80.90
38684;DHT22;24910;53.248;-6.134;2023-08-24T05:14:01;16.50;80.80
38684;DHT22;24910;53.248;-6.134;2023-08-24T05:16:31;16.60;80.80
38684;DHT22;24910;53.248;-6.134;2023-08-24T05:19:00;16.60;80.60
38684;DHT22;24910;53.248;-6.134;2023-08-24T05:21:30;16.50;80.60
38684;DHT22;24910;53.248;-6.134;2023-08-24T05:23:59;16.50;80.50
38684;DHT22;24910;53.248;-6.134;2023-08-24T05:26:28;16.50;80.50
38684;DHT22;24910;53.248;-6.134;2023-08-24T05:28:58;16.50;80.50
38684;DHT22;24910;53.248;-6.134;2023-08-24T05:31:27;16.50;80.50
38684;DHT22;24910;53.248;-6.134;2023-08-24T05:33:57;16.50;80.50
38684;DHT22;24910;53.248;-6.134;2023-08-24T05:36:26;16.50;80.50
38684;DHT22;24910;53.248;-6.134;2023-08-24T05:38:55;16.50;80.40
38684;DHT22;24910;53.248;-6.134;2023-08-24T05:41:27;16.50;80.30
38684;DHT22;24910;53.248;-6.134;2023-08-24T05:43:56;16.50;80.40
38684;DHT22;24910;53.248;-6.134;2023-08-24T05:46:26;16.40;80.60
38684;DHT22;24910;53.248;-6.134;2023-08-24T05:49:00;16.40;80.80
38684;DHT22;24910;53.248;-6.134;2023-08-24T05:51:32;16.40;80.90
38684;DHT22;24910;53.248;-6.134;2023-08-24T05:54:02;16.40;80.80
38684;DHT22;24910;53.248;-6.134;2023-08-24T05:56:31;16.40;80.80
38684;DHT22;24910;53.248;-6.134;2023-08-24T05:59:00;16.40;80.90
38684;DHT22;24910;53.248;-6.134;2023-08-24T06:01:32;16.40;80.70
38684;DHT22;24910;53.248;-6.134;2023-08-24T06:04:04;16.40;80.50
38684;DHT22;24910;53.248;-6.134;2023-08-24T06:06:33;16.50;80.50
38684;DHT22;24910;53.248;-6.134;2023-08-24T06:09:02;16.50;80.50
38684;DHT22;24910;53.248;-6.134;2023-08-24T06:11:36;16.50;80.20
38684;DHT22;24910;53.248;-6.134;2023-08-24T06:14:06;16.60;80.20
38684;DHT22;24910;53.248;-6.134;2023-08-24T06:16:35;16.60;81.00
38684;DHT22;24910;53.248;-6.134;2023-08-24T06:19:05;16.60;80.00
38684;DHT22;24910;53.248;-6.134;2023-08-24T06:21:35;16.60;80.10
38684;DHT22;24910;53.248;-6.134;2023-08-24T06:24:04;16.60;80.10
38684;DHT22;24910;53.248;-6.134;2023-08-24T06:26:33;16.60;80.00
38684;DHT22;24910;53.248;-6.134;2023-08-24T06:29:02;16.60;80.00
38684;DHT22;24910;53.248;-6.134;2023-08-24T06:31:31;16.60;79.90
38684;DHT22;24910;53.248;-6.134;2023-08-24T06:34:00;16.60;80.10
38684;DHT22;24910;53.248;-6.134;2023-08-24T06:36:31;16.60;80.20
38684;DHT22;24910;53.248;-6.134;2023-08-24T06:39:01;16.60;80.00
38684;DHT22;24910;53.248;-6.134;2023-08-24T06:41:33;16.60;80.00
38684;DHT22;24910;53.248;-6.134;2023-08-24T06:44:07;16.70;80.00
38684;DHT22;24910;53.248;-6.134;2023-08-24T06:46:36;16.60;79.90
38684;DHT22;24910;53.248;-6.134;2023-08-24T06:49:05;16.60;80.00
38684;DHT22;24910;53.248;-6.134;2023-08-24T06:51:36;16.60;79.90
38684;DHT22;24910;53.248;-6.134;2023-08-24T06:54:05;16.70;79.90
38684;DHT22;24910;53.248;-6.134;2023-08-24T06:56:34;16.70;79.90
38684;DHT22;24910;53.248;-6.134;2023-08-24T06:59:03;16.70;79.80
38684;DHT22;24910;53.248;-6.134;2023-08-24T07:01:33;16.80;79.70
38684;DHT22;24910;53.248;-6.134;2023-08-24T07:04:02;16.80;79.50
38684;DHT22;24910;53.248;-6.134;2023-08-24T07:06:33;16.90;79.60
38684;DHT22;24910;53.248;-6.134;2023-08-24T07:09:03;17.00;79.60
38684;DHT22;24910;53.248;-6.134;2023-08-24T07:11:35;17.10;79.60
38684;DHT22;24910;53.248;-6.134;2023-08-24T07:14:04;17.20;79.50
38684;DHT22;24910;53.248;-6.134;2023-08-24T07:16:33;17.30;79.30
38684;DHT22;24910;53.248;-6.134;2023-08-24T07:19:02;17.50;79.10
38684;DHT22;24910;53.248;-6.134;2023-08-24T07:21:33;17.70;78.90
38684;DHT22;24910;53.248;-6.134;2023-08-24T07:24:03;17.80;78.70
38684;DHT22;24910;53.248;-6.134;2023-08-24T07:26:33;17.90;78.40
38684;DHT22;24910;53.248;-6.134;2023-08-24T07:29:03;18.10;78.20
38684;DHT22;24910;53.248;-6.134;2023-08-24T07:31:32;18.20;78.00
38684;DHT22;24910;53.248;-6.134;2023-08-24T07:34:04;18.40;77.80
38684;DHT22;24910;53.248;-6.134;2023-08-24T07:36:34;18.40;77.70
38684;DHT22;24910;53.248;-6.134;2023-08-24T07:39:04;18.50;77.60
38684;DHT22;24910;53.248;-6.134;2023-08-24T07:41:34;18.50;77.50
38684;DHT22;24910;53.248;-6.134;2023-08-24T07:44:04;18.50;77.20
38684;DHT22;24910;53.248;-6.134;2023-08-24T07:46:33;18.50;77.30
38684;DHT22;24910;53.248;-6.134;2023-08-24T07:49:02;18.40;77.40
38684;DHT22;24910;53.248;-6.134;2023-08-24T07:51:32;18.40;77.50
38684;DHT22;24910;53.248;-6.134;2023-08-24T07:54:04;18.30;77.50
38684;DHT22;24910;53.248;-6.134;2023-08-24T07:56:34;18.20;77.60
38684;DHT22;24910;53.248;-6.134;2023-08-24T07:59:04;18.20;77.70
38684;DHT22;24910;53.248;-6.134;2023-08-24T08:01:33;18.10;77.70
38684;DHT22;24910;53.248;-6.134;2023-08-24T08:04:03;18.10;77.80
38684;DHT22;24910;53.248;-6.134;2023-08-24T08:06:32;18.20;77.70
38684;DHT22;24910;53.248;-6.134;2023-08-24T08:09:01;18.40;77.70
38684;DHT22;24910;53.248;-6.134;2023-08-24T08:11:32;18.50;77.50
38684;DHT22;24910;53.248;-6.134;2023-08-24T08:14:02;18.60;77.20
38684;DHT22;24910;53.248;-6.134;2023-08-24T08:16:31;18.80;77.00
38684;DHT22;24910;53.248;-6.134;2023-08-24T08:19:01;18.90;76.70
38684;DHT22;24910;53.248;-6.134;2023-08-24T08:21:31;18.90;76.50
38684;DHT22;24910;53.248;-6.134;2023-08-24T08:24:00;19.00;76.50
38684;DHT22;24910;53.248;-6.134;2023-08-24T08:26:29;19.10;76.30
38684;DHT22;24910;53.248;-6.134;2023-08-24T08:29:00;19.30;76.10
38684;DHT22;24910;53.248;-6.134;2023-08-24T08:31:29;19.30;76.70
38684;DHT22;24910;53.248;-6.134;2023-08-24T08:33:59;19.30;75.80
38684;DHT22;24910;53.248;-6.134;2023-08-24T08:36:28;19.40;75.80
38684;DHT22;24910;53.248;-6.134;2023-08-24T08:38:57;19.50;75.70
38684;DHT22;24910;53.248;-6.134;2023-08-24T08:41:30;19.60;75.50
38684;DHT22;24910;53.248;-6.134;2023-08-24T08:44:05;19.70;75.20
38684;DHT22;24910;53.248;-6.134;2023-08-24T08:46:34;19.80;75.20
38684;DHT22;24910;53.248;-6.134;2023-08-24T08:49:04;19.90;74.80
38684;DHT22;24910;53.248;-6.134;2023-08-24T08:51:36;19.90;74.90
38684;DHT22;24910;53.248;-6.134;2023-08-24T08:54:05;19.80;74.60
38684;DHT22;24910;53.248;-6.134;2023-08-24T08:56:35;19.70;75.00
38684;DHT22;24910;53.248;-6.134;2023-08-24T08:59:07;19.70;75.10
38684;DHT22;24910;53.248;-6.134;2023-08-24T09:01:38;19.70;75.00
38684;DHT22;24910;53.248;-6.134;2023-08-24T09:04:07;19.80;75.00
38684;DHT22;24910;53.248;-6.134;2023-08-24T09:06:37;19.90;74.60
38684;DHT22;24910;53.248;-6.134;2023-08-24T09:09:07;19.90;74.60
38684;DHT22;24910;53.248;-6.134;2023-08-24T09:11:36;20.00;74.60
38684;DHT22;24910;53.248;-6.134;2023-08-24T09:14:08;20.00;74.50
38684;DHT22;24910;53.248;-6.134;2023-08-24T09:16:38;19.90;74.60
38684;DHT22;24910;53.248;-6.134;2023-08-24T09:19:10;19.80;74.50
38684;DHT22;24910;53.248;-6.134;2023-08-24T09:21:40;19.70;74.50
38684;DHT22;24910;53.248;-6.134;2023-08-24T09:24:11;19.60;74.80
38684;DHT22;24910;53.248;-6.134;2023-08-24T09:26:41;19.70;74.50
38684;DHT22;24910;53.248;-6.134;2023-08-24T09:29:14;19.70;74.50
38684;DHT22;24910;53.248;-6.134;2023-08-24T09:31:43;19.70;74.50
38684;DHT22;24910;53.248;-6.134;2023-08-24T09:34:13;19.80;74.30
38684;DHT22;24910;53.248;-6.134;2023-08-24T09:36:43;19.70;74.20
38684;DHT22;24910;53.248;-6.134;2023-08-24T09:39:17;19.80;74.00
38684;DHT22;24910;53.248;-6.134;2023-08-24T09:41:49;19.80;73.70
38684;DHT22;24910;53.248;-6.134;2023-08-24T09:44:20;19.90;73.60
38684;DHT22;24910;53.248;-6.134;2023-08-24T09:46:50;19.90;73.60
38684;DHT22;24910;53.248;-6.134;2023-08-24T09:49:19;20.10;73.50
38684;DHT22;24910;53.248;-6.134;2023-08-24T09:51:49;20.30;73.30
38684;DHT22;24910;53.248;-6.134;2023-08-24T09:54:21;20.50;72.80
38684;DHT22;24910;53.248;-6.134;2023-08-24T09:56:55;20.60;72.50
38684;DHT22;24910;53.248;-6.134;2023-08-24T09:59:26;20.80;72.40
38684;DHT22;24910;53.248;-6.134;2023-08-24T10:01:56;20.90;72.20
38684;DHT22;24910;53.248;-6.134;2023-08-24T10:04:29;20.90;72.20
38684;DHT22;24910;53.248;-6.134;2023-08-24T10:07:06;20.70;71.90
38684;DHT22;24910;53.248;-6.134;2023-08-24T10:09:39;20.60;72.30
38684;DHT22;24910;53.248;-6.134;2023-08-24T10:12:13;20.60;72.60
38684;DHT22;24910;53.248;-6.134;2023-08-24T10:14:53;20.50;72.30
38684;DHT22;24910;53.248;-6.134;2023-08-24T10:17:25;20.40;72.40
38684;DHT22;24910;53.248;-6.134;2023-08-24T10:19:56;20.30;72.80
38684;DHT22;24910;53.248;-6.134;2023-08-24T10:22:25;20.30;72.80
38684;DHT22;24910;53.248;-6.134;2023-08-24T10:24:55;20.40;72.60
38684;DHT22;24910;53.248;-6.134;2023-08-24T10:27:26;20.30;72.50
38684;DHT22;24910;53.248;-6.134;2023-08-24T10:29:57;20.40;72.40
38684;DHT22;24910;53.248;-6.134;2023-08-24T10:32:27;20.50;71.70
38684;DHT22;24910;53.248;-6.134;2023-08-24T10:34:56;20.60;71.70
38684;DHT22;24910;53.248;-6.134;2023-08-24T10:37:26;20.60;71.70
38684;DHT22;24910;53.248;-6.134;2023-08-24T10:39:55;20.80;71.60
38684;DHT22;24910;53.248;-6.134;2023-08-24T10:42:25;20.80;71.40
38684;DHT22;24910;53.248;-6.134;2023-08-24T10:44:54;20.90;71.30
38684;DHT22;24910;53.248;-6.134;2023-08-24T10:47:25;21.10;71.20
38684;DHT22;24910;53.248;-6.134;2023-08-24T10:49:58;21.30;70.90
38684;DHT22;24910;53.248;-6.134;2023-08-24T10:52:32;21.40;70.70
38684;DHT22;24910;53.248;-6.134;2023-08-24T10:55:03;21.50;70.40
38684;DHT22;24910;53.248;-6.134;2023-08-24T10:57:36;21.30;70.40
38684;DHT22;24910;53.248;-6.134;2023-08-24T11:00:07;21.20;70.60
38684;DHT22;24910;53.248;-6.134;2023-08-24T11:02:46;21.10;70.50
38684;DHT22;24910;53.248;-6.134;2023-08-24T11:05:18;20.90;70.70
38684;DHT22;24910;53.248;-6.134;2023-08-24T11:07:52;20.70;71.00
38684;DHT22;24910;53.248;-6.134;2023-08-24T11:10:22;20.80;71.20
38684;DHT22;24910;53.248;-6.134;2023-08-24T11:13:13;20.90;71.10
38684;DHT22;24910;53.248;-6.134;2023-08-24T11:15:43;21.10;70.60
38684;DHT22;24910;53.248;-6.134;2023-08-24T11:18:25;21.30;70.30
38684;DHT22;24910;53.248;-6.134;2023-08-24T11:20:55;21.60;69.70
38684;DHT22;24910;53.248;-6.134;2023-08-24T11:23:25;21.70;69.50
38684;DHT22;24910;53.248;-6.134;2023-08-24T11:25:55;21.60;69.50
38684;DHT22;24910;53.248;-6.134;2023-08-24T11:28:26;21.50;69.60
38684;DHT22;24910;53.248;-6.134;2023-08-24T11:30:57;21.40;69.70
38684;DHT22;24910;53.248;-6.134;2023-08-24T11:33:29;21.40;69.90
38684;DHT22;24910;53.248;-6.134;2023-08-24T11:36:00;21.50;69.50
38684;DHT22;24910;53.248;-6.134;2023-08-24T11:38:37;21.50;69.20
38684;DHT22;24910;53.248;-6.134;2023-08-24T11:41:11;21.60;69.30
38684;DHT22;24910;53.248;-6.134;2023-08-24T11:43:41;21.70;69.10
38684;DHT22;24910;53.248;-6.134;2023-08-24T11:46:11;21.70;69.10
38684;DHT22;24910;53.248;-6.134;2023-08-24T11:48:42;21.80;68.90
38684;DHT22;24910;53.248;-6.134;2023-08-24T11:51:11;21.90;68.70
38684;DHT22;24910;53.248;-6.134;2023-08-24T11:53:46;21.80;68.60
38684;DHT22;24910;53.248;-6.134;2023-08-24T11:56:16;21.80;68.70
38684;DHT22;24910;53.248;-6.134;2023-08-24T11:58:49;21.80;68.70
38684;DHT22;24910;53.248;-6.134;2023-08-24T12:01:20;21.80;68.70
38684;DHT22;24910;53.248;-6.134;2023-08-24T12:03:50;21.70;68.90
38684;DHT22;24910;53.248;-6.134;2023-08-24T12:06:19;21.60;69.10
38684;DHT22;24910;53.248;-6.134;2023-08-24T12:08:49;21.70;69.10
38684;DHT22;24910;53.248;-6.134;2023-08-24T12:11:19;21.80;69.00
38684;DHT22;24910;53.248;-6.134;2023-08-24T12:13:49;21.90;68.80
38684;DHT22;24910;53.248;-6.134;2023-08-24T12:16:19;22.10;68.40
38684;DHT22;24910;53.248;-6.134;2023-08-24T12:18:54;22.10;68.10
38684;DHT22;24910;53.248;-6.134;2023-08-24T12:21:23;22.30;67.90
38684;DHT22;24910;53.248;-6.134;2023-08-24T12:23:58;22.40;67.50
38684;DHT22;24910;53.248;-6.134;2023-08-24T12:26:27;22.40;67.40
38684;DHT22;24910;53.248;-6.134;2023-08-24T12:29:00;22.20;67.00
38684;DHT22;24910;53.248;-6.134;2023-08-24T12:31:31;22.20;67.30
38684;DHT22;24910;53.248;-6.134;2023-08-24T12:34:03;22.10;67.00
38684;DHT22;24910;53.248;-6.134;2023-08-24T12:36:33;22.00;66.80
38684;DHT22;24910;53.248;-6.134;2023-08-24T12:39:04;21.90;66.90
38684;DHT22;24910;53.248;-6.134;2023-08-24T12:41:34;21.70;67.00
38684;DHT22;24910;53.248;-6.134;2023-08-24T12:44:04;21.60;67.30
38684;DHT22;24910;53.248;-6.134;2023-08-24T12:46:34;21.50;67.50
38684;DHT22;24910;53.248;-6.134;2023-08-24T12:49:05;21.50;67.60
38684;DHT22;24910;53.248;-6.134;2023-08-24T12:51:34;21.50;67.60
38684;DHT22;24910;53.248;-6.134;2023-08-24T12:54:03;21.50;67.50
38684;DHT22;24910;53.248;-6.134;2023-08-24T12:56:34;21.50;67.50
38684;DHT22;24910;53.248;-6.134;2023-08-24T12:59:04;21.50;67.50
38684;DHT22;24910;53.248;-6.134;2023-08-24T13:01:33;21.50;67.50
38684;DHT22;24910;53.248;-6.134;2023-08-24T13:04:03;21.50;67.50
38684;DHT22;24910;53.248;-6.134;2023-08-24T13:06:34;21.50;67.40
38684;DHT22;24910;53.248;-6.134;2023-08-24T13:09:03;21.40;67.30
38684;DHT22;24910;53.248;-6.134;2023-08-24T13:11:33;21.40;67.30
38684;DHT22;24910;53.248;-6.134;2023-08-24T13:14:02;21.40;67.40
38684;DHT22;24910;53.248;-6.134;2023-08-24T13:16:31;21.50;67.30
38684;DHT22;24910;53.248;-6.134;2023-08-24T13:19:00;21.50;66.90
38684;DHT22;24910;53.248;-6.134;2023-08-24T13:21:30;21.50;66.90
38684;DHT22;24910;53.248;-6.134;2023-08-24T13:24:00;21.50;66.80
38684;DHT22;24910;53.248;-6.134;2023-08-24T13:26:29;21.40;66.80
38684;DHT22;24910;53.248;-6.134;2023-08-24T13:28:58;21.30;66.90
38684;DHT22;24910;53.248;-6.134;2023-08-24T13:31:29;21.20;66.70
38684;DHT22;24910;53.248;-6.134;2023-08-24T13:33:58;21.10;66.70
38684;DHT22;24910;53.248;-6.134;2023-08-24T13:36:28;21.20;66.60
38684;DHT22;24910;53.248;-6.134;2023-08-24T13:38:57;21.30;66.50
38684;DHT22;24910;53.248;-6.134;2023-08-24T13:41:27;21.30;66.30
38684;DHT22;24910;53.248;-6.134;2023-08-24T13:43:56;21.30;66.20
38684;DHT22;24910;53.248;-6.134;2023-08-24T13:46:25;21.30;66.10
38684;DHT22;24910;53.248;-6.134;2023-08-24T13:48:55;21.30;66.00
38684;DHT22;24910;53.248;-6.134;2023-08-24T13:51:24;21.30;66.00
38684;DHT22;24910;53.248;-6.134;2023-08-24T13:53:53;21.30;65.80
38684;DHT22;24910;53.248;-6.134;2023-08-24T13:56:22;21.20;65.80
38684;DHT22;24910;53.248;-6.134;2023-08-24T13:58:52;21.20;65.70
38684;DHT22;24910;53.248;-6.134;2023-08-24T14:01:22;21.30;65.60
38684;DHT22;24910;53.248;-6.134;2023-08-24T14:03:51;21.30;65.60
38684;DHT22;24910;53.248;-6.134;2023-08-24T14:06:20;21.50;65.50
38684;DHT22;24910;53.248;-6.134;2023-08-24T14:08:49;21.60;65.20
38684;DHT22;24910;53.248;-6.134;2023-08-24T14:11:18;21.60;65.00
38684;DHT22;24910;53.248;-6.134;2023-08-24T14:13:47;21.70;64.90
38684;DHT22;24910;53.248;-6.134;2023-08-24T14:16:18;21.70;64.90
38684;DHT22;24910;53.248;-6.134;2023-08-24T14:18:48;21.70;64.70
38684;DHT22;24910;53.248;-6.134;2023-08-24T14:21:17;21.70;64.70
38684;DHT22;24910;53.248;-6.134;2023-08-24T14:24:03;21.80;64.70
38684;DHT22;24910;53.248;-6.134;2023-08-24T14:26:32;21.80;64.70
38684;DHT22;24910;53.248;-6.134;2023-08-24T14:29:01;21.80;64.60
38684;DHT22;24910;53.248;-6.134;2023-08-24T14:31:32;21.80;64.50
38684;DHT22;24910;53.248;-6.134;2023-08-24T14:34:01;21.90;64.50
38684;DHT22;24910;53.248;-6.134;2023-08-24T14:36:30;21.90;64.50
38684;DHT22;24910;53.248;-6.134;2023-08-24T14:39:00;21.90;64.50
38684;DHT22;24910;53.248;-6.134;2023-08-24T14:41:29;21.90;64.40
38684;DHT22;24910;53.248;-6.134;2023-08-24T14:44:00;21.90;64.20
38684;DHT22;24910;53.248;-6.134;2023-08-24T14:46:29;21.90;64.20
38684;DHT22;24910;53.248;-6.134;2023-08-24T14:48:59;21.80;64.20
38684;DHT22;24910;53.248;-6.134;2023-08-24T14:51:29;21.80;64.40
38684;DHT22;24910;53.248;-6.134;2023-08-24T14:53:58;21.80;64.40
38684;DHT22;24910;53.248;-6.134;2023-08-24T14:56:27;21.80;64.40
38684;DHT22;24910;53.248;-6.134;2023-08-24T14:58:56;21.80;64.40
38684;DHT22;24910;53.248;-6.134;2023-08-24T15:01:25;21.80;64.40
38684;DHT22;24910;53.248;-6.134;2023-08-24T15:03:54;21.80;64.30
38684;DHT22;24910;53.248;-6.134;2023-08-24T15:06:25;21.70;64.20
38684;DHT22;24910;53.248;-6.134;2023-08-24T15:08:54;21.70;64.20
38684;DHT22;24910;53.248;-6.134;2023-08-24T15:11:23;21.70;64.30
38684;DHT22;24910;53.248;-6.134;2023-08-24T15:13:53;21.70;64.30
38684;DHT22;24910;53.248;-6.134;2023-08-24T15:16:25;21.70;64.20
38684;DHT22;24910;53.248;-6.134;2023-08-24T15:18:54;21.70;64.20
38684;DHT22;24910;53.248;-6.134;2023-08-24T15:21:30;21.70;64.10
38684;DHT22;24910;53.248;-6.134;2023-08-24T15:23:59;21.60;64.90
38684;DHT22;24910;53.248;-6.134;2023-08-24T15:26:28;21.50;64.00
38684;DHT22;24910;53.248;-6.134;2023-08-24T15:29:10;21.40;64.20
38684;DHT22;24910;53.248;-6.134;2023-08-24T15:31:39;21.40;64.30
38684;DHT22;24910;53.248;-6.134;2023-08-24T15:34:12;21.40;65.20
38684;DHT22;24910;53.248;-6.134;2023-08-24T15:36:43;21.40;64.00